Terminal Aerodrome Forecast
Issued by NWS

Home | Current Version | Previous Version | Text Only | Print | Product List | Glossary On
Versions: 1 2 3 4 5 6 7 8 9 10 11 12 13 14 15 16 17 18 19 20 21 22
136
FTUS43 KSGF 250520
TAFJLN
TAF
KJLN 250520Z 2506/2606 VRB03KT P6SM SKC
      TEMPO 2513/2515 4SM SHRA OVC025
     FM251500 VRB03KT 5SM SHRA OVC020
     FM252300 33005KT 5SM SHRA OVC010
     FM260100 34005KT 6SM -SHRA OVC008=

USA.gov is the U.S. government's official web portal to all federal, state and local government web resources and services.